Time;durP1;ratioP1;P1;durP2;ratioP2;P2;SDS_P1;SDS_P2;PMS_P1;PMS_P2;Temp;Humidity;BMP_temperature;BMP_pressure;BME280_temperature;BME280_humidity;BME280_pressure;Samples;Min_cycle;Max_cycle;Signal;HPM_P1;HPM_P2
2020/12/30 00:01:05;;;;;;;4.03;3.63;;;;;;;1.05;93.41;99106.59;4900787;29;20059;-46
2020/12/30 00:03:35;;;;;;;6.57;4.10;;;;;;;0.86;93.46;99100.00;4902728;29;20142;-45
2020/12/30 00:06:05;;;;;;;6.80;4.65;;;;;;;0.86;93.90;99102.53;4902133;29;20052;-45
2020/12/30 00:08:32;;;;;;;4.53;4.13;;;;;;;0.95;92.58;99097.84;4898289;29;20044;-46
2020/12/30 00:11:00;;;;;;;5.30;4.22;;;;;;;0.82;92.74;99102.34;4901423;29;20135;-45
2020/12/30 00:13:27;;;;;;;4.70;3.80;;;;;;;0.85;93.36;99107.50;4898561;29;20056;-46
2020/12/30 00:15:56;;;;;;;6.95;4.88;;;;;;;0.91;93.67;99107.75;4901075;29;20044;-48
2020/12/30 00:18:23;;;;;;;8.18;3.92;;;;;;;0.79;93.41;99114.81;4899023;29;20838;-45
2020/12/30 00:20:51;;;;;;;5.05;3.80;;;;;;;0.98;93.48;99108.03;4900237;29;20132;-46
2020/12/30 00:23:18;;;;;;;7.30;3.70;;;;;;;1.14;92.57;99116.16;4899356;29;20052;-47
2020/12/30 00:25:46;;;;;;;5.55;4.10;;;;;;;0.97;92.33;99103.81;4902711;29;20052;-50
2020/12/30 00:28:13;;;;;;;7.13;4.45;;;;;;;0.81;92.17;99108.19;4901004;29;20048;-46
2020/12/30 00:30:40;;;;;;;4.72;4.07;;;;;;;0.98;92.26;99115.59;4902114;29;20097;-45
2020/12/30 00:33:08;;;;;;;6.03;4.72;;;;;;;0.80;92.85;99114.03;4901400;29;20144;-45
2020/12/30 00:35:36;;;;;;;7.30;4.78;;;;;;;0.75;93.80;99117.22;4898338;29;20052;-44
2020/12/30 00:38:03;;;;;;;8.25;5.13;;;;;;;0.60;94.38;99113.22;4900809;29;20237;-48
2020/12/30 00:40:31;;;;;;;10.80;5.18;;;;;;;0.59;94.62;99116.56;4897524;29;20045;-45
2020/12/30 00:42:58;;;;;;;6.90;5.50;;;;;;;0.55;94.65;99118.09;4901791;29;20049;-45
2020/12/30 00:45:26;;;;;;;8.32;5.60;;;;;;;0.65;94.60;99117.69;4901116;29;20079;-45
2020/12/30 00:47:53;;;;;;;8.50;6.35;;;;;;;0.56;94.44;99119.84;4900900;29;20048;-48
2020/12/30 00:50:21;;;;;;;8.05;5.75;;;;;;;0.90;92.82;99122.00;4899543;29;20055;-43
2020/12/30 00:52:49;;;;;;;9.77;6.50;;;;;;;0.56;94.18;99121.50;4903616;29;20076;-47
2020/12/30 00:55:16;;;;;;;6.97;5.20;;;;;;;0.61;93.64;99130.94;4902171;29;20043;-45
2020/12/30 00:57:43;;;;;;;8.70;5.28;;;;;;;0.63;93.84;99124.28;4903153;29;20075;-45
2020/12/30 01:00:10;;;;;;;6.72;5.07;;;;;;;0.68;94.13;99127.84;4901059;29;20051;-43
2020/12/30 01:02:37;;;;;;;7.50;5.95;;;;;;;0.62;94.31;99119.22;4898676;29;20093;-47
2020/12/30 01:05:05;;;;;;;5.82;4.90;;;;;;;0.77;93.89;99124.84;4905620;29;20048;-45
2020/12/30 01:07:32;;;;;;;10.38;5.95;;;;;;;0.77;93.58;99133.25;4897974;29;20053;-46
2020/12/30 01:09:59;;;;;;;7.18;5.70;;;;;;;0.61;93.48;99135.13;4912143;29;20059;-46
2020/12/30 01:12:26;;;;;;;8.45;5.57;;;;;;;0.80;93.81;99134.19;4910287;29;20135;-46
2020/12/30 01:14:53;;;;;;;8.77;5.70;;;;;;;0.84;93.73;99131.84;4911469;29;20052;-45
2020/12/30 01:17:20;;;;;;;6.10;4.72;;;;;;;0.76;93.05;99138.25;4910231;29;20100;-46
2020/12/30 01:19:47;;;;;;;7.30;5.78;;;;;;;0.70;92.92;99133.81;4910919;29;20055;-49
2020/12/30 01:22:15;;;;;;;5.35;4.65;;;;;;;0.64;93.27;99143.63;4911234;29;20135;-48
2020/12/30 01:24:42;;;;;;;7.75;5.38;;;;;;;0.55;94.35;99142.41;4910520;29;20051;-50
2020/12/30 01:27:10;;;;;;;5.57;4.60;;;;;;;0.53;94.26;99144.88;4895028;29;20134;-45
2020/12/30 01:29:39;;;;;;;5.88;4.70;;;;;;;0.77;93.61;99145.00;4910370;29;20052;-43
2020/12/30 01:32:06;;;;;;;6.50;4.20;;;;;;;0.64;94.83;99142.78;4911110;29;20064;-51
2020/12/30 01:34:33;;;;;;;8.30;4.38;;;;;;;0.91;93.00;99143.88;4909975;29;20063;-45
2020/12/30 01:37:00;;;;;;;6.63;4.50;;;;;;;1.10;92.23;99139.53;4909127;29;20054;-47
2020/12/30 01:39:28;;;;;;;6.18;4.55;;;;;;;1.15;91.33;99135.53;4909387;29;20048;-46
2020/12/30 01:41:58;;;;;;;5.47;4.38;;;;;;;1.14;91.91;99143.91;4910994;29;20129;-44
2020/12/30 01:44:26;;;;;;;5.97;4.70;;;;;;;1.06;91.94;99146.13;4910133;29;20745;-45
2020/12/30 01:46:59;;;;;;;7.72;4.78;;;;;;;1.16;92.07;99142.31;4910597;29;20058;-45
2020/12/30 01:49:26;;;;;;;6.25;4.22;;;;;;;1.13;92.04;99145.56;4909886;29;20055;-46
2020/12/30 01:51:54;;;;;;;5.78;3.88;;;;;;;1.14;91.55;99149.78;4910524;29;20051;-45
2020/12/30 01:54:21;;;;;;;8.68;5.65;;;;;;;1.23;91.70;99139.19;4894333;29;20495;-45
2020/12/30 01:56:48;;;;;;;6.28;4.63;;;;;;;0.83;92.57;99142.69;4910666;29;20091;-48
2020/12/30 01:59:17;;;;;;;7.60;4.30;;;;;;;1.16;91.75;99149.88;4909771;29;20048;-48
2020/12/30 02:02:04;;;;;;;6.32;4.57;;;;;;;1.20;91.54;99151.69;4911483;29;20158;-45
2020/12/30 02:04:44;;;;;;;7.65;4.20;;;;;;;1.35;90.68;99152.28;4908752;29;20052;-48
2020/12/30 02:07:12;;;;;;;5.28;3.92;;;;;;;1.18;91.78;99154.16;4909127;29;20502;-43
2020/12/30 02:09:43;;;;;;;5.53;4.80;;;;;;;0.94;92.48;99145.66;4909783;29;20119;-48
2020/12/30 02:12:13;;;;;;;8.95;4.25;;;;;;;1.06;92.52;99148.63;4910605;29;20500;-43
2020/12/30 02:14:41;;;;;;;5.45;4.20;;;;;;;1.25;91.46;99141.00;4894868;29;20055;-46
2020/12/30 02:17:15;;;;;;;7.95;3.67;;;;;;;1.57;90.12;99141.28;4909370;29;20044;-45
2020/12/30 02:19:45;;;;;;;5.00;3.22;;;;;;;1.60;89.72;99138.88;4909075;29;20040;-45
2020/12/30 02:22:20;;;;;;;6.07;4.20;;;;;;;1.52;90.14;99150.34;4909311;29;20126;-47
2020/12/30 02:24:48;;;;;;;6.40;3.30;;;;;;;1.53;89.99;99145.38;4909621;29;20044;-50
2020/12/30 02:27:15;;;;;;;6.47;3.55;;;;;;;1.51;90.08;99148.66;4909310;29;20048;-45
2020/12/30 02:29:41;;;;;;;5.15;3.28;;;;;;;1.71;89.48;99150.25;4909481;29;20056;-46
2020/12/30 02:32:08;;;;;;;5.00;3.17;;;;;;;1.76;89.01;99150.41;4909796;29;20792;-45
2020/12/30 02:34:35;;;;;;;3.38;2.85;;;;;;;1.75;88.31;99151.19;4910483;29;20301;-44
2020/12/30 02:37:01;;;;;;;4.07;2.97;;;;;;;1.83;88.36;99159.03;4909769;29;20048;-44
2020/12/30 02:39:28;;;;;;;5.95;2.83;;;;;;;1.71;88.40;99157.81;4908185;29;20059;-45
2020/12/30 02:41:55;;;;;;;3.88;2.78;;;;;;;1.79;88.31;99153.03;4911166;29;20044;-49
2020/12/30 02:44:21;;;;;;;4.20;3.03;;;;;;;1.52;89.10;99157.94;4908599;29;20078;-45
2020/12/30 02:46:48;;;;;;;6.65;2.72;;;;;;;1.48;89.42;99158.63;4909094;29;20131;-45
2020/12/30 02:49:15;;;;;;;2.97;2.67;;;;;;;1.15;91.16;99161.59;4910591;29;20051;-46
2020/12/30 02:51:43;;;;;;;5.68;2.88;;;;;;;1.14;91.85;99159.88;4909094;29;20503;-47
2020/12/30 02:54:09;;;;;;;4.22;2.80;;;;;;;1.46;90.57;99162.75;4909297;29;20166;-45
2020/12/30 02:56:36;;;;;;;5.80;3.40;;;;;;;1.38;90.42;99154.91;4909390;29;20507;-45
2020/12/30 02:59:03;;;;;;;3.67;2.80;;;;;;;1.33;90.38;99161.44;4909873;29;20102;-46
2020/12/30 03:01:30;;;;;;;5.97;2.95;;;;;;;1.51;89.85;99166.31;4907837;29;20055;-50
2020/12/30 03:03:57;;;;;;;4.78;2.95;;;;;;;1.43;89.63;99161.00;4909484;29;20772;-46
2020/12/30 03:06:24;;;;;;;3.28;2.85;;;;;;;1.14;90.58;99166.59;4907739;29;20520;-45
2020/12/30 03:08:52;;;;;;;5.05;2.92;;;;;;;1.04;91.09;99164.50;4908748;29;20618;-45
2020/12/30 03:11:20;;;;;;;4.18;3.33;;;;;;;0.79;92.15;99165.19;4911826;29;20066;-48
2020/12/30 03:13:47;;;;;;;3.53;2.47;;;;;;;0.69;93.18;99162.34;4906684;29;20548;-48
2020/12/30 03:16:14;;;;;;;5.68;2.97;;;;;;;0.81;93.21;99164.47;4909541;29;20510;-47
2020/12/30 03:18:41;;;;;;;5.95;3.20;;;;;;;0.83;92.07;99159.47;4911147;29;20682;-45
2020/12/30 03:21:08;;;;;;;5.50;2.75;;;;;;;0.67;93.46;99173.13;4909360;29;20059;-49
2020/12/30 03:23:35;;;;;;;5.20;3.22;;;;;;;1.03;92.14;99166.19;4908740;29;20121;-46
2020/12/30 03:26:02;;;;;;;5.05;2.67;;;;;;;0.61;93.07;99165.34;4911176;29;20048;-48
2020/12/30 03:28:29;;;;;;;6.93;3.15;;;;;;;0.81;92.92;99169.50;4909251;29;20055;-45
2020/12/30 03:30:55;;;;;;;4.13;2.85;;;;;;;0.45;94.42;99163.84;4913622;29;20078;-43
2020/12/30 03:33:23;;;;;;;3.28;2.88;;;;;;;0.84;93.46;99169.63;4913924;29;20135;-49
2020/12/30 03:35:49;;;;;;;6.88;3.35;;;;;;;0.78;93.52;99176.94;4912082;29;20051;-45
2020/12/30 03:38:16;;;;;;;5.40;3.13;;;;;;;0.38;93.98;99172.81;4908589;29;20056;-46
2020/12/30 03:40:42;;;;;;;6.53;3.33;;;;;;;0.03;96.23;99173.84;4911175;29;20048;-42
2020/12/30 03:43:09;;;;;;;4.97;3.50;;;;;;;0.27;96.23;99174.00;4907293;29;20056;-46
2020/12/30 03:45:35;;;;;;;7.30;3.13;;;;;;;0.41;96.12;99172.06;4908176;29;20048;-45
2020/12/30 03:48:02;;;;;;;5.55;3.97;;;;;;;-0.02;96.62;99172.78;4910931;29;20048;-43
2020/12/30 03:50:29;;;;;;;5.28;3.58;;;;;;;0.14;96.40;99175.19;4908362;29;20630;-47
2020/12/30 03:52:56;;;;;;;7.22;3.90;;;;;;;-0.06;97.36;99175.97;4909659;29;20108;-47
2020/12/30 03:55:23;;;;;;;6.40;3.90;;;;;;;0.00;97.37;99176.25;4912524;29;20047;-43
2020/12/30 03:57:49;;;;;;;6.97;4.03;;;;;;;0.01;97.66;99172.94;4910200;29;20047;-44
2020/12/30 04:00:16;;;;;;;5.38;4.22;;;;;;;0.19;96.41;99175.38;4912036;29;20055;-47
2020/12/30 04:02:42;;;;;;;7.10;3.83;;;;;;;0.18;95.76;99179.50;4908046;29;20511;-45
2020/12/30 04:05:09;;;;;;;5.80;3.95;;;;;;;-0.02;96.15;99176.16;4909182;29;20051;-47
2020/12/30 04:07:35;;;;;;;6.78;3.90;;;;;;;0.21;95.79;99168.72;4910074;29;20052;-49
2020/12/30 04:10:03;;;;;;;6.90;3.80;;;;;;;0.09;95.47;99165.69;4908697;29;20043;-48
2020/12/30 04:12:30;;;;;;;5.85;4.32;;;;;;;0.01;96.18;99165.38;4907904;29;20059;-48
2020/12/30 04:14:56;;;;;;;7.20;4.20;;;;;;;0.29;95.46;99169.91;4912921;29;20044;-47
2020/12/30 04:17:23;;;;;;;8.63;3.90;;;;;;;0.40;94.44;99167.84;4909005;29;20048;-47
2020/12/30 04:19:49;;;;;;;5.63;3.45;;;;;;;0.58;94.19;99175.28;4909676;29;20054;-46
2020/12/30 04:22:16;;;;;;;5.65;3.42;;;;;;;0.42;94.39;99187.25;4913706;29;20055;-49
2020/12/30 04:24:42;;;;;;;7.63;3.80;;;;;;;0.48;94.70;99184.97;4914650;29;20056;-46
2020/12/30 04:27:09;;;;;;;4.88;4.25;;;;;;;0.03;95.08;99178.88;4910671;29;20426;-47
2020/12/30 04:29:36;;;;;;;5.70;3.75;;;;;;;0.39;95.08;99187.13;4908041;29;20044;-48
2020/12/30 04:32:02;;;;;;;5.20;3.70;;;;;;;0.14;95.22;99189.38;4910570;29;20052;-47
2020/12/30 04:34:29;;;;;;;5.10;3.80;;;;;;;0.15;95.61;99202.06;4907236;29;20056;-45
2020/12/30 04:36:56;;;;;;;6.30;4.32;;;;;;;0.20;95.46;99198.06;4906900;29;20171;-46
2020/12/30 04:39:23;;;;;;;7.68;3.83;;;;;;;0.05;96.92;99194.03;4910571;29;20420;-46
2020/12/30 04:41:50;;;;;;;5.95;4.95;;;;;;;0.43;94.73;99199.03;4909466;29;20056;-45
2020/12/30 04:44:18;;;;;;;6.70;4.15;;;;;;;0.16;95.07;99206.28;4912795;29;20070;-45
2020/12/30 04:46:45;;;;;;;6.47;4.60;;;;;;;0.03;95.46;99209.06;4909132;29;20591;-45
2020/12/30 04:49:12;;;;;;;6.07;4.43;;;;;;;0.28;95.50;99208.47;4914347;29;20056;-47
2020/12/30 04:51:39;;;;;;;9.95;4.82;;;;;;;0.59;94.05;99207.22;4912913;29;20143;-44
2020/12/30 04:54:06;;;;;;;8.48;4.30;;;;;;;0.57;94.19;99211.34;4910745;29;20056;-45
2020/12/30 04:56:39;;;;;;;7.75;4.07;;;;;;;0.66;93.33;99211.72;4910634;29;20423;-50
2020/12/30 04:59:10;;;;;;;6.97;4.40;;;;;;;0.73;93.46;99211.16;4911821;29;20147;-48
2020/12/30 05:01:59;;;;;;;5.25;3.58;;;;;;;0.84;92.94;99214.13;4909642;29;20131;-47
2020/12/30 05:04:26;;;;;;;5.70;3.67;;;;;;;0.64;93.90;99219.19;4906245;29;20051;-50
2020/12/30 05:06:57;;;;;;;8.10;3.92;;;;;;;0.53;93.83;99220.44;4914713;29;20040;-47
2020/12/30 05:09:26;;;;;;;4.38;3.45;;;;;;;0.53;93.96;99222.09;4911287;29;20043;-49
2020/12/30 05:11:52;;;;;;;4.07;3.17;;;;;;;0.42;94.08;99225.03;4917813;29;20047;-46
2020/12/30 05:14:19;;;;;;;5.80;3.38;;;;;;;0.47;93.72;99226.06;4917191;29;20056;-47
2020/12/30 05:16:45;;;;;;;6.47;3.75;;;;;;;0.58;93.26;99228.16;4918589;29;20052;-47
2020/12/30 05:19:12;;;;;;;4.35;3.55;;;;;;;0.36;94.32;99226.41;4909456;29;20070;-46
2020/12/30 05:21:38;;;;;;;6.40;3.58;;;;;;;0.49;93.40;99228.66;4908334;29;20056;-48
2020/12/30 05:24:06;;;;;;;6.85;3.70;;;;;;;0.02;95.11;99231.66;4919078;29;20051;-44
2020/12/30 05:26:34;;;;;;;3.80;3.22;;;;;;;0.02;95.55;99234.16;4920329;29;20051;-45
2020/12/30 05:29:01;;;;;;;5.82;3.83;;;;;;;0.09;95.36;99237.00;4916787;29;20089;-48
2020/12/30 05:31:28;;;;;;;3.40;3.10;;;;;;;0.40;93.91;99233.28;4904784;29;20048;-49
2020/12/30 05:33:55;;;;;;;6.13;3.88;;;;;;;0.07;94.93;99233.56;4915881;29;20048;-45
2020/12/30 05:36:25;;;;;;;5.07;3.40;;;;;;;0.01;95.31;99245.88;4904345;29;20040;-48
2020/12/30 05:38:52;;;;;;;5.03;3.78;;;;;;;0.09;94.87;99244.56;4910103;29;20059;-46
2020/12/30 05:41:22;;;;;;;5.00;3.80;;;;;;;0.27;93.92;99234.41;4907709;29;20154;-45
2020/12/30 05:43:49;;;;;;;5.05;4.00;;;;;;;-0.13;95.34;99249.47;4904087;29;20051;-45
2020/12/30 05:46:28;;;;;;;7.40;3.80;;;;;;;-0.14;96.05;99256.16;4913126;29;20051;-47
2020/12/30 05:48:55;;;;;;;5.00;3.75;;;;;;;0.29;94.54;99259.69;4906068;29;20044;-44
2020/12/30 05:51:29;;;;;;;4.32;3.63;;;;;;;0.00;94.90;99264.31;4915804;29;20056;-45
2020/12/30 05:54:28;;;;;;;6.63;3.72;;;;;;;-0.44;96.48;99268.16;4909490;29;20048;-45
2020/12/30 05:56:55;;;;;;;5.50;3.53;;;;;;;-0.12;96.23;99271.28;4873190;29;20049;-46
2020/12/30 05:59:25;;;;;;;5.90;3.47;;;;;;;-0.10;95.90;99274.72;4921912;29;20059;-46
2020/12/30 06:01:52;;;;;;;4.78;3.65;;;;;;;-0.23;95.92;99265.78;4915812;29;20059;-47
2020/12/30 06:04:19;;;;;;;7.80;3.92;;;;;;;-0.03;95.76;99269.19;4913933;29;20052;-46
2020/12/30 06:06:47;;;;;;;8.02;4.07;;;;;;;-0.34;95.53;99272.81;4913304;29;20044;-48
2020/12/30 06:09:19;;;;;;;5.93;4.30;;;;;;;-0.60;96.74;99286.72;4917441;29;20056;-46
2020/12/30 06:11:53;;;;;;;6.53;4.03;;;;;;;-0.83;98.07;99284.78;4915975;29;20052;-45
2020/12/30 06:14:21;;;;;;;7.13;3.97;;;;;;;-0.78;98.92;99293.38;4909358;29;20055;-44
2020/12/30 06:16:48;;;;;;;7.50;5.10;;;;;;;-0.97;99.38;99298.28;4908932;29;20056;-45
2020/12/30 06:19:15;;;;;;;7.05;5.20;;;;;;;-1.19;100.00;99308.94;4917487;29;20783;-47
2020/12/30 06:21:44;;;;;;;6.97;5.20;;;;;;;-1.18;100.00;99311.53;4900660;29;20049;-48
2020/12/30 06:24:15;;;;;;;8.18;4.80;;;;;;;-1.33;100.00;99310.78;4905790;29;20135;-46
2020/12/30 06:26:43;;;;;;;11.50;4.95;;;;;;;-1.13;100.00;99300.06;4910210;29;20052;-45
2020/12/30 06:29:14;;;;;;;7.75;5.05;;;;;;;-1.00;100.00;99318.25;4914244;29;20048;-48
2020/12/30 06:31:44;;;;;;;7.72;4.88;;;;;;;-1.18;100.00;99323.22;4908194;29;20044;-47
2020/12/30 06:34:11;;;;;;;6.63;4.43;;;;;;;-1.11;100.00;99323.63;4904967;29;20056;-45
2020/12/30 06:36:39;;;;;;;8.18;4.65;;;;;;;-0.79;100.00;99330.22;4910554;29;20048;-45
2020/12/30 06:39:19;;;;;;;8.27;4.53;;;;;;;-0.99;99.87;99330.03;4914493;29;20189;-50
2020/12/30 06:42:06;;;;;;;9.40;4.97;;;;;;;-0.93;99.76;99336.19;4910351;29;20052;-44
2020/12/30 06:44:40;;;;;;;8.13;4.85;;;;;;;-1.03;99.96;99337.41;4903086;29;20647;-47
2020/12/30 06:47:11;;;;;;;6.25;4.50;;;;;;;-0.87;99.88;99334.00;4915995;29;20056;-46
2020/12/30 06:49:38;;;;;;;5.88;4.50;;;;;;;-0.99;100.00;99340.06;4915505;29;20048;-45
2020/12/30 06:52:27;;;;;;;7.85;5.60;;;;;;;-1.09;99.96;99351.31;4910782;29;20059;-45
2020/12/30 06:54:53;;;;;;;9.05;5.18;;;;;;;-1.20;100.00;99355.81;4916612;29;20043;-46
2020/12/30 06:57:39;;;;;;;9.68;5.00;;;;;;;-0.83;100.00;99357.63;4908801;29;20054;-45
2020/12/30 07:00:55;;;;;;;8.97;5.67;;;;;;;-1.06;100.00;99357.34;4918125;29;20071;-48
2020/12/30 07:03:22;;;;;;;9.15;5.60;;;;;;;-1.20;100.00;99364.97;4819127;29;20054;-46
2020/12/30 07:05:48;;;;;;;7.78;5.22;;;;;;;-1.20;100.00;99354.91;4812158;29;20058;-43
2020/12/30 07:08:37;;;;;;;7.22;5.47;;;;;;;-1.27;100.00;99355.41;4868572;29;20487;-45
2020/12/30 07:11:04;;;;;;;10.27;6.13;;;;;;;-1.31;100.00;99356.88;4915044;29;20051;-44
2020/12/30 07:13:39;;;;;;;11.93;6.88;;;;;;;-1.37;100.00;99354.06;4901126;29;20053;-43
2020/12/30 07:16:36;;;;;;;11.02;6.75;;;;;;;-1.04;100.00;99362.44;4903012;29;20438;-43
2020/12/30 07:19:10;;;;;;;;;;;;;;;-1.33;100.00;99361.00;4905998;29;20052;-48
2020/12/30 07:22:00;;;;;;;12.27;6.35;;;;;;;-1.10;100.00;99368.03;4903529;29;19943;-46
2020/12/30 07:24:30;;;;;;;11.73;5.93;;;;;;;-1.11;100.00;99371.34;4905995;29;20096;-48
2020/12/30 07:27:03;;;;;;;8.75;5.85;;;;;;;-1.05;100.00;99374.16;4910312;29;20044;-44
2020/12/30 07:29:30;;;;;;;9.65;6.45;;;;;;;-1.20;100.00;99375.00;4905557;29;20044;-43
2020/12/30 07:32:02;;;;;;;11.20;6.05;;;;;;;-1.24;100.00;99379.03;4910225;29;20258;-44
2020/12/30 07:34:31;;;;;;;9.15;5.90;;;;;;;-1.21;100.00;99379.16;4907805;29;20506;-46
2020/12/30 07:36:58;;;;;;;7.13;5.63;;;;;;;-1.12;100.00;99376.25;4909813;29;20047;-44
2020/12/30 07:39:32;;;;;;;7.55;5.40;;;;;;;-0.96;100.00;99383.78;4907085;29;20048;-48
2020/12/30 07:41:59;;;;;;;11.70;6.35;;;;;;;-1.04;100.00;99380.88;4910627;29;20047;-45
2020/12/30 07:44:26;;;;;;;10.85;6.70;;;;;;;-0.68;100.00;99386.03;4907603;29;20173;-46
2020/12/30 07:47:03;;;;;;;9.57;5.97;;;;;;;-0.26;99.50;99387.22;4907724;29;20052;-43
2020/12/30 07:49:31;;;;;;;6.90;5.28;;;;;;;0.03;97.60;99392.75;4903475;29;20044;-46
2020/12/30 07:52:02;;;;;;;7.93;5.18;;;;;;;0.18;96.33;99390.94;4907736;29;20135;-45
2020/12/30 07:54:30;;;;;;;8.10;5.55;;;;;;;-0.13;97.57;99402.91;4907792;29;20044;-48
2020/12/30 07:57:04;;;;;;;7.47;5.18;;;;;;;-0.07;96.67;99411.59;4907888;29;20054;-47
2020/12/30 07:59:33;;;;;;;6.13;4.20;;;;;;;0.25;96.03;99407.19;4907902;29;20114;-45
2020/12/30 08:02:04;;;;;;;6.53;4.72;;;;;;;0.09;95.99;99409.78;4912194;29;20529;-45
2020/12/30 08:04:36;;;;;;;8.98;5.10;;;;;;;0.37;95.84;99406.88;4904589;29;20107;-46
2020/12/30 08:07:05;;;;;;;8.25;4.53;;;;;;;0.63;94.05;99405.53;4905091;29;20059;-43
2020/12/30 08:09:35;;;;;;;6.72;5.07;;;;;;;0.47;94.29;99411.53;4906595;29;20048;-44
2020/12/30 08:12:04;;;;;;;9.18;4.82;;;;;;;0.41;94.43;99412.09;4906823;29;20147;-44
2020/12/30 08:14:33;;;;;;;8.98;4.75;;;;;;;0.29;94.86;99414.09;4912266;29;20052;-44
2020/12/30 08:17:07;;;;;;;6.85;4.93;;;;;;;0.64;93.78;99420.69;4908015;29;20046;-47
2020/12/30 08:19:47;;;;;;;6.47;4.10;;;;;;;0.69;92.86;99415.84;4910560;29;20055;-46
2020/12/30 08:22:26;;;;;;;6.25;4.82;;;;;;;0.39;94.48;99418.75;4904671;29;20126;-44
2020/12/30 08:24:57;;;;;;;5.97;4.65;;;;;;;0.95;93.49;99419.53;4906388;29;20048;-44
2020/12/30 08:27:26;;;;;;;6.57;4.82;;;;;;;0.87;92.98;99424.22;4908431;29;20967;-46
2020/12/30 08:30:01;;;;;;;13.02;4.65;;;;;;;0.67;93.51;99428.41;4909555;29;20040;-47
2020/12/30 08:32:34;;;;;;;10.38;4.90;;;;;;;1.38;91.44;99424.72;4907322;29;20392;-45
2020/12/30 08:35:04;;;;;;;8.05;4.38;;;;;;;1.51;90.09;99423.56;4908628;29;20050;-49
2020/12/30 08:37:33;;;;;;;6.57;4.28;;;;;;;1.77;89.16;99425.50;4906871;29;20585;-51
2020/12/30 08:40:03;;;;;;;7.03;4.40;;;;;;;1.73;88.40;99420.25;4907375;29;20052;-45
2020/12/30 08:42:58;;;;;;;5.40;3.95;;;;;;;1.83;88.51;99426.53;4908031;29;20472;-48
2020/12/30 08:45:33;;;;;;;6.32;4.30;;;;;;;1.74;88.95;99429.56;4905638;29;20051;-48
2020/12/30 08:48:11;;;;;;;7.10;4.60;;;;;;;1.55;89.68;99434.66;4908092;29;20078;-48
2020/12/30 08:50:38;;;;;;;8.55;4.53;;;;;;;1.83;89.99;99437.50;4906823;29;20052;-48
2020/12/30 08:53:05;;;;;;;6.68;4.70;;;;;;;2.03;88.62;99440.78;4909762;29;20059;-46
2020/12/30 08:55:32;;;;;;;7.85;5.53;;;;;;;1.94;87.93;99442.94;4907876;29;20059;-47
2020/12/30 08:57:59;;;;;;;10.40;5.32;;;;;;;2.57;87.19;99445.38;4909071;29;20054;-43
2020/12/30 09:00:32;;;;;;;6.95;4.65;;;;;;;2.47;85.48;99451.75;4908622;29;20052;-46
2020/12/30 09:03:12;;;;;;;6.45;5.07;;;;;;;2.48;86.26;99451.81;4908308;29;20052;-43
2020/12/30 09:05:39;;;;;;;8.35;6.53;;;;;;;2.90;84.65;99451.66;4911549;29;20052;-45
2020/12/30 09:08:13;;;;;;;7.72;4.53;;;;;;;4.80;78.28;99452.75;4907462;29;20058;-46
2020/12/30 09:10:41;;;;;;;7.82;5.70;;;;;;;4.40;78.85;99453.28;4907022;29;20048;-45
2020/12/30 09:13:19;;;;;;;8.73;5.88;;;;;;;4.73;75.73;99456.81;4907531;29;20672;-51
2020/12/30 09:15:54;;;;;;;8.05;6.05;;;;;;;4.91;75.74;99463.22;4907729;29;20052;-44
2020/12/30 09:18:22;;;;;;;11.38;6.63;;;;;;;5.01;74.94;99457.59;4907256;29;20095;-43
2020/12/30 09:20:50;;;;;;;7.40;4.78;;;;;;;8.64;63.12;99463.50;4906240;29;20269;-46
2020/12/30 09:23:20;;;;;;;6.15;4.78;;;;;;;8.58;61.52;99458.31;4903129;29;20142;-44
2020/12/30 09:25:47;;;;;;;9.18;4.40;;;;;;;9.56;56.66;99451.78;4907634;29;20499;-45
2020/12/30 09:28:17;;;;;;;5.82;4.70;;;;;;;9.68;56.66;99457.88;4906177;29;20076;-47
2020/12/30 09:30:45;;;;;;;6.30;3.70;;;;;;;10.23;54.55;99460.03;4907294;29;20056;-46
2020/12/30 09:33:17;;;;;;;8.10;4.57;;;;;;;11.17;51.78;99453.72;4909004;29;20052;-50
2020/12/30 09:35:45;;;;;;;5.70;3.95;;;;;;;10.17;55.44;99460.00;4916274;29;20486;-45
2020/12/30 09:38:19;;;;;;;5.20;3.72;;;;;;;8.13;60.48;99464.41;4913848;29;20087;-45
2020/12/30 09:40:47;;;;;;;6.22;4.22;;;;;;;5.83;67.72;99464.84;4908801;29;20056;-44
2020/12/30 09:43:19;;;;;;;6.63;4.40;;;;;;;6.81;64.29;99461.16;4912740;29;20056;-49
2020/12/30 09:45:49;;;;;;;5.07;4.15;;;;;;;6.67;65.24;99470.19;4913810;29;20048;-47
2020/12/30 09:48:20;;;;;;;5.00;3.97;;;;;;;5.78;68.59;99465.56;4909501;29;20052;-48
2020/12/30 09:50:49;;;;;;;8.20;4.07;;;;;;;5.82;68.51;99463.13;4912711;29;20055;-44
2020/12/30 09:53:15;;;;;;;8.85;4.00;;;;;;;5.54;69.84;99455.63;4912339;29;20055;-46
2020/12/30 09:55:43;;;;;;;5.53;3.85;;;;;;;5.48;69.83;99455.47;4912738;29;20059;-45
2020/12/30 09:58:10;;;;;;;5.88;3.95;;;;;;;4.82;72.76;99462.13;4912734;29;20052;-46
2020/12/30 10:00:37;;;;;;;4.95;3.72;;;;;;;4.43;73.88;99461.81;4914428;29;20043;-44
2020/12/30 10:03:03;;;;;;;6.97;4.07;;;;;;;4.97;72.72;99455.78;4912422;29;20060;-44
2020/12/30 10:05:30;;;;;;;7.90;4.57;;;;;;;4.76;73.61;99464.50;4911579;29;20481;-45
2020/12/30 10:07:57;;;;;;;7.05;4.68;;;;;;;4.64;73.74;99460.75;4911624;29;20101;-45
2020/12/30 10:10:24;;;;;;;5.97;4.40;;;;;;;4.73;74.24;99461.03;4912044;29;20050;-49
2020/12/30 10:12:51;;;;;;;6.20;4.30;;;;;;;5.34;71.51;99463.56;4911131;29;20089;-48
2020/12/30 10:15:17;;;;;;;6.68;3.67;;;;;;;5.55;70.54;99457.34;4913926;29;20052;-49
2020/12/30 10:17:44;;;;;;;5.88;3.72;;;;;;;5.64;69.70;99457.59;4913437;29;20060;-47
2020/12/30 10:20:12;;;;;;;9.80;4.10;;;;;;;5.74;69.18;99461.22;4909350;29;21465;-49
2020/12/30 10:22:40;;;;;;;5.60;3.92;;;;;;;5.52;70.91;99452.19;4908721;29;20419;-47
2020/12/30 10:25:12;;;;;;;6.85;3.83;;;;;;;5.28;72.17;99452.41;4909754;29;20055;-46
2020/12/30 10:27:40;;;;;;;5.95;3.47;;;;;;;5.02;72.61;99452.53;4908738;29;20059;-46
2020/12/30 10:30:08;;;;;;;4.05;3.25;;;;;;;5.32;71.91;99449.16;4909685;29;20567;-46
2020/12/30 10:32:35;;;;;;;3.63;3.22;;;;;;;5.60;70.05;99456.66;4908203;29;20514;-45
2020/12/30 10:35:06;;;;;;;4.47;3.10;;;;;;;5.47;71.06;99448.69;4909684;29;20086;-48
2020/12/30 10:37:34;;;;;;;5.70;2.97;;;;;;;5.28;71.64;99457.50;4907892;29;20345;-48
2020/12/30 10:40:01;;;;;;;6.05;3.45;;;;;;;5.59;70.37;99456.59;4907465;29;20056;-43
2020/12/30 10:42:27;;;;;;;4.50;3.60;;;;;;;5.36;71.88;99453.44;4907621;29;20743;-45
2020/12/30 10:44:54;;;;;;;6.35;3.47;;;;;;;5.10;72.06;99453.63;4908791;29;20044;-50
2020/12/30 10:47:20;;;;;;;4.43;3.78;;;;;;;5.13;72.04;99451.97;4907469;29;20056;-46
2020/12/30 10:49:47;;;;;;;7.50;3.60;;;;;;;4.89;73.32;99445.41;4908448;29;20380;-46
2020/12/30 10:52:13;;;;;;;3.95;3.35;;;;;;;5.09;73.32;99440.91;4908404;29;20051;-47
2020/12/30 10:54:45;;;;;;;6.35;3.38;;;;;;;5.02;73.11;99444.06;4906320;29;20582;-44
2020/12/30 10:57:11;;;;;;;5.70;3.38;;;;;;;4.90;74.58;99444.63;4909263;29;20055;-46
2020/12/30 10:59:38;;;;;;;4.40;3.28;;;;;;;4.94;74.17;99441.31;4908096;29;20415;-46
2020/12/30 11:02:05;;;;;;;3.58;2.90;;;;;;;4.82;74.14;99441.00;4909231;29;20178;-48
2020/12/30 11:04:32;;;;;;;4.88;3.35;;;;;;;4.89;73.92;99440.34;4908773;29;20047;-46
2020/12/30 11:06:59;;;;;;;4.47;3.20;;;;;;;5.01;74.18;99438.16;4911127;29;20056;-49
2020/12/30 11:09:25;;;;;;;4.68;3.10;;;;;;;5.05;73.66;99439.97;4881489;29;20048;-49
2020/12/30 11:11:52;;;;;;;3.70;2.92;;;;;;;5.00;74.05;99433.91;4908067;29;20052;-45
2020/12/30 11:14:18;;;;;;;5.57;3.10;;;;;;;5.05;73.93;99434.88;4907412;29;20051;-49
2020/12/30 11:16:49;;;;;;;4.75;3.30;;;;;;;5.20;74.40;99438.66;4907620;29;20067;-46
2020/12/30 11:19:18;;;;;;;5.35;3.15;;;;;;;4.99;75.45;99437.25;4907499;29;20055;-46
2020/12/30 11:21:52;;;;;;;5.70;3.38;;;;;;;5.39;72.95;99432.38;4907971;29;20399;-47
2020/12/30 11:24:18;;;;;;;6.78;3.25;;;;;;;5.52;72.42;99440.34;4907018;29;20056;-44
2020/12/30 11:26:46;;;;;;;6.43;3.42;;;;;;;6.01;70.82;99441.59;4907674;29;20044;-48
2020/12/30 11:29:13;;;;;;;4.32;2.90;;;;;;;6.42;69.52;99433.19;4907576;29;20051;-47
2020/12/30 11:31:39;;;;;;;6.03;3.10;;;;;;;7.56;66.48;99443.09;4907582;29;20257;-45
2020/12/30 11:34:06;;;;;;;3.63;3.08;;;;;;;8.69;61.26;99436.38;4908715;29;20063;-47
2020/12/30 11:36:32;;;;;;;5.47;2.92;;;;;;;9.33;58.74;99428.56;4906443;29;20060;-47
2020/12/30 11:38:59;;;;;;;5.15;3.03;;;;;;;9.09;58.85;99424.91;4908943;29;20052;-44
2020/12/30 11:41:25;;;;;;;5.03;3.13;;;;;;;8.89;59.90;99434.91;4899759;29;20053;-43
2020/12/30 11:43:52;;;;;;;4.40;2.72;;;;;;;8.58;61.10;99443.84;4907980;29;20450;-47
2020/12/30 11:46:20;;;;;;;5.57;2.95;;;;;;;8.28;61.54;99436.63;4906618;29;20154;-49
2020/12/30 11:48:47;;;;;;;6.85;2.92;;;;;;;7.51;64.13;99443.84;4907683;29;20052;-52